Time;durP1;ratioP1;P1;durP2;ratioP2;P2;SDS_P1;SDS_P2;PMS_P1;PMS_P2;Temp;Humidity;BMP_temperature;BMP_pressure;BME280_temperature;BME280_humidity;BME280_pressure;Samples;Min_cycle;Max_cycle;Signal;HPM_P1;HPM_P2
2022/01/03 00:01:04;;;;;;;21.90;4.15;;;;;;;10.04;81.21;101123.28;5057348;28;20064;-60
2022/01/03 00:03:29;;;;;;;20.92;3.90;;;;;;;9.96;81.46;101144.50;5058214;28;20065;-59
2022/01/03 00:05:55;;;;;;;24.05;3.85;;;;;;;9.92;81.45;101126.25;5060175;28;20040;-59
2022/01/03 00:08:21;;;;;;;20.70;4.25;;;;;;;9.92;81.60;101133.38;5057754;28;20032;-58
2022/01/03 00:10:46;;;;;;;26.70;3.78;;;;;;;9.90;81.60;101136.19;5057284;28;20512;-59
2022/01/03 00:13:12;;;;;;;21.77;3.63;;;;;;;9.74;81.95;101119.34;5059255;28;20016;-59
2022/01/03 00:15:37;;;;;;;21.67;3.85;;;;;;;9.91;81.84;101135.19;5070914;28;20036;-59
2022/01/03 00:18:04;;;;;;;26.83;4.25;;;;;;;9.94;81.90;101139.34;5064072;28;20131;-59
2022/01/03 00:20:29;;;;;;;20.25;3.80;;;;;;;9.90;82.08;101140.66;5059800;28;20025;-59
2022/01/03 00:23:05;;;;;;;23.42;4.32;;;;;;;9.86;82.02;101132.19;5065266;28;20078;-59
2022/01/03 00:25:36;;;;;;;21.58;4.03;;;;;;;9.90;82.03;101140.66;5055788;28;20032;-58
2022/01/03 00:28:14;;;;;;;25.33;4.90;;;;;;;9.83;82.28;101144.91;5058257;28;20024;-59
2022/01/03 00:30:42;;;;;;;26.10;4.03;;;;;;;9.83;82.00;101132.50;5056757;28;20632;-59
2022/01/03 00:33:08;;;;;;;24.08;4.18;;;;;;;9.86;81.95;101148.09;5057669;28;20031;-59
2022/01/03 00:35:37;;;;;;;28.90;4.78;;;;;;;9.83;82.25;101135.16;5061699;28;20051;-59
2022/01/03 00:38:03;;;;;;;31.35;4.68;;;;;;;9.87;82.04;101162.19;5061689;28;20025;-59
2022/01/03 00:40:29;;;;;;;24.80;4.60;;;;;;;9.87;81.98;101143.63;5056297;28;20215;-59
2022/01/03 00:42:54;;;;;;;21.75;3.67;;;;;;;9.90;81.92;101141.50;5058393;28;20021;-59
2022/01/03 00:45:20;;;;;;;22.63;3.72;;;;;;;9.90;81.73;101148.63;5054854;28;20048;-58
2022/01/03 00:47:47;;;;;;;30.83;5.10;;;;;;;9.92;81.75;101143.97;5059775;28;20121;-58
2022/01/03 00:50:15;;;;;;;22.27;4.15;;;;;;;9.96;81.42;101145.31;5056025;28;20392;-59
2022/01/03 00:52:41;;;;;;;26.58;4.00;;;;;;;9.98;80.98;101143.34;5066337;28;20058;-59
2022/01/03 00:55:07;;;;;;;23.60;4.10;;;;;;;9.91;81.23;101143.16;5066571;28;20081;-59
2022/01/03 00:57:51;;;;;;;27.08;4.43;;;;;;;9.87;81.18;101144.47;5061237;28;20099;-59
2022/01/03 01:00:17;;;;;;;22.63;3.85;;;;;;;9.91;81.46;101147.63;5059468;28;20081;-59
2022/01/03 01:03:12;;;;;;;24.52;4.53;;;;;;;9.97;81.19;101143.50;5057740;28;20090;-60
2022/01/03 01:05:46;;;;;;;30.17;4.75;;;;;;;10.04;80.79;101152.47;5053000;28;20056;-59
2022/01/03 01:08:12;;;;;;;24.58;4.35;;;;;;;10.05;80.92;101139.06;5055852;28;20028;-59
2022/01/03 01:10:40;;;;;;;26.25;3.90;;;;;;;9.99;81.06;101137.03;5056464;28;20102;-59
2022/01/03 01:13:09;;;;;;;26.05;3.67;;;;;;;9.97;81.01;101154.94;5058114;28;20411;-59
2022/01/03 01:15:35;;;;;;;23.85;4.35;;;;;;;9.98;80.86;101159.25;5054253;28;20025;-59
2022/01/03 01:18:04;;;;;;;25.23;4.00;;;;;;;10.04;80.32;101149.81;5053005;28;20025;-58
2022/01/03 01:20:31;;;;;;;22.85;4.07;;;;;;;9.98;80.45;101169.88;5055146;28;20872;-59
2022/01/03 01:22:56;;;;;;;26.70;3.90;;;;;;;9.99;80.46;101150.31;5056476;28;20438;-59
2022/01/03 01:27:46;;;;;;;22.92;3.97;;;;;;;10.01;80.26;101160.75;5053190;28;20025;-59
2022/01/03 01:28:12;;;;;;;28.38;4.43;;;;;;;9.97;80.52;101165.56;5055010;28;20400;-59
2022/01/03 01:30:38;;;;;;;21.83;3.33;;;;;;;10.00;80.45;101170.53;5055105;28;20074;-59
2022/01/03 01:33:15;;;;;;;25.58;4.50;;;;;;;9.98;80.28;101175.19;5051471;28;20529;-59
2022/01/03 01:35:57;;;;;;;22.65;4.95;;;;;;;10.00;80.22;101186.47;5061119;28;20028;-59
2022/01/03 01:38:28;;;;;;;24.33;4.47;;;;;;;10.03;79.95;101186.16;5056944;28;20468;-59
2022/01/03 01:40:55;;;;;;;22.77;4.15;;;;;;;10.01;79.80;101184.63;5061471;28;20033;-59
2022/01/03 01:43:35;;;;;;;24.17;4.10;;;;;;;9.97;79.96;101162.91;5062469;28;20550;-59
2022/01/03 01:46:11;;;;;;;23.98;3.83;;;;;;;9.96;79.94;101177.16;5055049;28;20025;-59
2022/01/03 01:48:39;;;;;;;26.55;4.85;;;;;;;9.91;80.21;101168.84;5053341;28;20021;-59
2022/01/03 01:51:07;;;;;;;23.27;4.65;;;;;;;9.85;80.05;101164.19;5057196;28;20483;-59
2022/01/03 01:53:40;;;;;;;21.77;4.75;;;;;;;9.83;80.01;101160.81;5058317;28;20100;-59
2022/01/03 01:56:14;;;;;;;28.63;4.50;;;;;;;9.76;80.34;101171.25;5059230;28;20032;-59
2022/01/03 01:59:08;;;;;;;30.92;4.90;;;;;;;9.73;80.52;101162.78;5056151;28;20028;-59
2022/01/03 02:01:41;;;;;;;24.75;4.57;;;;;;;9.73;80.76;101160.13;5063242;28;20028;-59
2022/01/03 02:04:24;;;;;;;28.90;4.55;;;;;;;9.64;80.68;101161.91;5060837;28;20086;-59
2022/01/03 02:06:55;;;;;;;25.90;5.07;;;;;;;9.66;81.11;101167.88;5059827;28;20067;-59
2022/01/03 02:09:34;;;;;;;34.60;4.95;;;;;;;9.58;80.78;101163.38;5053999;28;20358;-59
2022/01/03 02:12:02;;;;;;;32.75;4.93;;;;;;;9.58;81.11;101171.31;5056949;28;20558;-59
2022/01/03 02:14:35;;;;;;;28.60;4.30;;;;;;;9.54;81.38;101162.00;5062082;28;20111;-60
2022/01/03 02:17:01;;;;;;;27.60;4.03;;;;;;;9.55;81.52;101174.28;5062025;28;20051;-59
2022/01/03 02:19:27;;;;;;;29.50;4.65;;;;;;;9.55;81.20;101176.09;5053803;28;20073;-59
2022/01/03 02:21:52;;;;;;;23.38;3.88;;;;;;;9.57;81.11;101182.09;5049751;28;20017;-59
2022/01/03 02:24:17;;;;;;;21.77;4.85;;;;;;;9.58;81.30;101158.06;5057081;28;20090;-59
2022/01/03 02:26:43;;;;;;;24.80;4.45;;;;;;;9.57;80.88;101168.81;5056242;28;20150;-59
2022/01/03 02:29:08;;;;;;;26.83;4.38;;;;;;;9.53;81.06;101162.97;5057787;28;20237;-59
2022/01/03 02:31:34;;;;;;;29.40;4.88;;;;;;;9.53;81.04;101156.84;5054822;28;20025;-58
2022/01/03 02:34:03;;;;;;;25.77;4.20;;;;;;;9.59;81.00;101166.84;5060396;28;20033;-59
2022/01/03 02:36:32;;;;;;;24.20;4.43;;;;;;;9.53;80.97;101181.53;5054423;28;20037;-59
2022/01/03 02:38:57;;;;;;;27.33;4.28;;;;;;;9.49;80.69;101171.41;5058767;28;20605;-59
2022/01/03 02:41:22;;;;;;;24.63;4.40;;;;;;;9.47;80.84;101174.22;5058295;28;20029;-59
2022/01/03 02:43:51;;;;;;;28.70;4.05;;;;;;;9.47;81.00;101170.72;5053225;28;20036;-59
2022/01/03 02:46:17;;;;;;;25.85;4.40;;;;;;;9.47;81.01;101166.25;5055796;28;20438;-59
2022/01/03 02:48:43;;;;;;;24.83;4.00;;;;;;;9.48;81.20;101186.47;5054009;28;20542;-59
2022/01/03 02:51:11;;;;;;;23.23;4.28;;;;;;;9.50;80.76;101170.41;5056326;28;20036;-59
2022/01/03 02:53:37;;;;;;;26.38;4.53;;;;;;;9.51;81.02;101170.25;5056631;28;20017;-57
2022/01/03 02:56:02;;;;;;;29.85;4.32;;;;;;;9.53;81.05;101172.75;5050284;28;20025;-59
2022/01/03 02:58:27;;;;;;;29.23;4.65;;;;;;;9.51;81.12;101175.56;5054825;28;20396;-58
2022/01/03 03:00:53;;;;;;;23.23;4.40;;;;;;;9.53;80.82;101176.22;5064925;28;20446;-59
2022/01/03 03:03:20;;;;;;;28.15;4.68;;;;;;;9.50;81.12;101168.59;5057998;28;20013;-59
2022/01/03 03:05:46;;;;;;;20.17;4.00;;;;;;;9.50;81.19;101173.91;5063599;28;20032;-59
2022/01/03 03:08:13;;;;;;;25.92;5.07;;;;;;;9.46;81.17;101167.25;5063732;28;20062;-58
2022/01/03 03:10:40;;;;;;;29.90;4.20;;;;;;;9.47;81.34;101174.22;5061538;28;20063;-59
2022/01/03 03:13:06;;;;;;;20.13;3.85;;;;;;;9.45;81.28;101173.53;5055394;28;20021;-59
2022/01/03 03:15:32;;;;;;;24.90;4.25;;;;;;;9.46;81.38;101177.00;5068785;28;20012;-59
2022/01/03 03:17:58;;;;;;;25.40;5.20;;;;;;;9.48;81.30;101180.34;5068852;28;20055;-59
2022/01/03 03:20:26;;;;;;;27.80;5.03;;;;;;;9.46;81.50;101183.16;5061439;28;20428;-59
2022/01/03 03:22:52;;;;;;;31.73;4.93;;;;;;;9.45;81.84;101193.91;5061002;28;20021;-59
2022/01/03 03:25:24;;;;;;;36.90;6.07;;;;;;;9.48;81.74;101180.34;5059133;28;20016;-59
2022/01/03 03:27:51;;;;;;;28.90;5.47;;;;;;;9.51;81.51;101164.94;5058144;28;20036;-59
2022/01/03 03:30:23;;;;;;;32.42;5.80;;;;;;;9.53;81.85;101189.50;5060142;28;20020;-58
2022/01/03 03:32:51;;;;;;;30.55;6.13;;;;;;;9.50;81.65;101189.81;5057348;28;20036;-59
2022/01/03 03:35:17;;;;;;;28.23;5.38;;;;;;;9.53;82.11;101189.50;5053761;28;20100;-59
2022/01/03 03:37:43;;;;;;;28.25;5.97;;;;;;;9.52;81.70;101187.81;5064384;28;20017;-60
2022/01/03 03:40:09;;;;;;;30.55;6.43;;;;;;;9.52;81.99;101168.44;5066687;28;20025;-59
2022/01/03 03:42:35;;;;;;;28.75;6.07;;;;;;;9.58;81.67;101191.69;5057780;28;20157;-59
2022/01/03 03:45:00;;;;;;;34.17;6.32;;;;;;;9.56;81.87;101178.59;5059259;28;20484;-59
2022/01/03 03:47:26;;;;;;;27.58;5.30;;;;;;;9.60;81.86;101182.59;5064417;28;20017;-59
2022/01/03 03:49:51;;;;;;;25.23;5.00;;;;;;;9.55;82.34;101171.63;5052637;28;20032;-59
2022/01/03 03:52:16;;;;;;;29.05;5.93;;;;;;;9.60;81.95;101168.50;5062203;28;20021;-59
2022/01/03 03:54:42;;;;;;;30.88;5.82;;;;;;;9.61;82.09;101172.81;5062990;28;20451;-59
2022/01/03 03:57:08;;;;;;;31.02;5.80;;;;;;;9.69;81.66;101185.28;5057764;28;20040;-59
2022/01/03 03:59:35;;;;;;;25.80;5.53;;;;;;;9.65;81.56;101171.53;5054666;28;20572;-59
2022/01/03 04:02:00;;;;;;;26.50;5.25;;;;;;;9.63;81.70;101178.81;5056192;28;20115;-59
2022/01/03 04:04:26;;;;;;;26.67;4.88;;;;;;;9.62;81.86;101161.22;5059901;28;20096;-59
2022/01/03 04:06:52;;;;;;;32.83;5.75;;;;;;;9.61;81.87;101171.00;5064345;28;20119;-59
2022/01/03 04:09:17;;;;;;;32.47;5.78;;;;;;;9.63;81.93;101160.25;5064654;28;20024;-58
2022/01/03 04:11:43;;;;;;;33.10;5.80;;;;;;;9.60;81.82;101158.72;5059300;28;20399;-59
2022/01/03 04:14:08;;;;;;;34.70;5.75;;;;;;;9.57;81.88;101159.06;5061589;28;20531;-57
2022/01/03 04:16:34;;;;;;;30.55;5.85;;;;;;;9.58;81.64;101160.72;5063396;28;20049;-59
2022/01/03 04:19:00;;;;;;;23.90;5.07;;;;;;;9.53;81.95;101149.72;5056912;28;20029;-58
2022/01/03 04:21:26;;;;;;;24.73;5.45;;;;;;;9.49;81.76;101160.78;5062685;28;20603;-58
2022/01/03 04:23:53;;;;;;;27.90;5.50;;;;;;;9.48;81.82;101154.66;5056891;28;20031;-60
2022/01/03 04:26:19;;;;;;;40.05;6.35;;;;;;;9.42;82.17;101143.84;5062727;28;20025;-57
2022/01/03 04:28:44;;;;;;;28.85;5.50;;;;;;;9.43;81.55;101133.09;5056848;28;20039;-57
2022/01/03 04:31:09;;;;;;;24.60;5.55;;;;;;;9.47;81.98;101160.13;5066731;28;20541;-59
2022/01/03 04:33:35;;;;;;;24.27;5.32;;;;;;;9.48;82.13;101148.53;5058001;28;20061;-59
2022/01/03 04:36:00;;;;;;;25.42;5.57;;;;;;;9.46;82.05;101150.50;5058482;28;20393;-58
2022/01/03 04:38:26;;;;;;;34.15;5.88;;;;;;;9.48;82.08;101137.94;5057681;28;20079;-59
2022/01/03 04:40:51;;;;;;;36.40;6.03;;;;;;;9.46;82.06;101143.38;5063530;28;20024;-59
2022/01/03 04:43:16;;;;;;;23.70;5.22;;;;;;;9.48;82.36;101143.22;5064684;28;20027;-59
2022/01/03 04:45:41;;;;;;;25.52;4.95;;;;;;;9.51;82.38;101149.03;5052557;28;20029;-58
2022/01/03 04:48:07;;;;;;;26.52;5.28;;;;;;;9.56;82.38;101145.94;5056181;28;20037;-59
2022/01/03 04:50:32;;;;;;;30.88;4.80;;;;;;;9.52;81.96;101134.81;5059963;28;20020;-59
2022/01/03 04:52:58;;;;;;;31.35;5.88;;;;;;;9.49;81.96;101127.16;5058540;28;20116;-59
2022/01/03 04:55:23;;;;;;;27.95;4.88;;;;;;;9.48;82.12;101128.16;5057446;28;20032;-59
2022/01/03 04:57:50;;;;;;;29.70;5.47;;;;;;;9.48;82.04;101130.81;5052734;28;20112;-59
2022/01/03 05:00:16;;;;;;;30.27;5.45;;;;;;;9.46;82.51;101140.72;5060445;28;20024;-59
2022/01/03 05:02:41;;;;;;;31.27;5.80;;;;;;;9.45;82.59;101131.13;5058036;28;20120;-59
2022/01/03 05:05:07;;;;;;;29.17;5.97;;;;;;;9.46;82.45;101122.19;5063038;28;20100;-59
2022/01/03 05:07:32;;;;;;;27.45;4.88;;;;;;;9.46;82.28;101135.44;5059443;28;20396;-59
2022/01/03 05:09:58;;;;;;;30.83;5.40;;;;;;;9.52;82.41;101144.56;5060735;28;20036;-59
2022/01/03 05:12:23;;;;;;;29.63;5.85;;;;;;;9.49;82.27;101121.03;5063157;28;20025;-59
2022/01/03 05:14:48;;;;;;;30.33;6.57;;;;;;;9.50;82.04;101130.66;5061213;28;20112;-59
2022/01/03 05:17:13;;;;;;;33.28;6.50;;;;;;;9.48;82.27;101112.25;5054854;28;20037;-58
2022/01/03 05:19:39;;;;;;;28.92;4.90;;;;;;;9.48;82.10;101119.38;5060286;28;20040;-59
2022/01/03 05:22:05;;;;;;;34.50;6.20;;;;;;;9.51;82.30;101127.84;5062109;28;20056;-59
2022/01/03 05:24:34;;;;;;;29.00;5.40;;;;;;;9.54;81.89;101097.53;5054711;28;20040;-59
2022/01/03 05:26:59;;;;;;;30.40;6.15;;;;;;;9.54;82.03;101126.69;5059108;28;20067;-59
2022/01/03 05:29:25;;;;;;;34.55;5.78;;;;;;;9.59;82.10;101130.56;5055975;28;20063;-57
2022/01/03 05:31:50;;;;;;;26.83;4.93;;;;;;;9.57;81.76;101106.03;5058297;28;20055;-59
2022/01/03 05:34:15;;;;;;;31.40;5.22;;;;;;;9.59;82.06;101111.16;5058623;28;20040;-59
2022/01/03 05:36:41;;;;;;;30.73;5.78;;;;;;;9.56;82.17;101114.97;5055893;28;20135;-59
2022/01/03 05:39:06;;;;;;;32.28;5.18;;;;;;;9.56;82.04;101107.00;5051766;28;20075;-59
2022/01/03 05:41:32;;;;;;;34.78;5.35;;;;;;;9.56;81.93;101112.31;5065324;28;20147;-59
2022/01/03 05:43:58;;;;;;;31.85;5.72;;;;;;;9.53;81.99;101109.94;5050263;28;20040;-58
2022/01/03 05:46:24;;;;;;;30.17;5.45;;;;;;;9.49;82.66;101102.47;5051887;28;20035;-58
2022/01/03 05:48:49;;;;;;;26.55;5.15;;;;;;;9.47;82.74;101105.28;5052658;28;20028;-59
2022/01/03 05:51:14;;;;;;;27.88;5.13;;;;;;;9.46;82.75;101118.69;5056043;28;20054;-59
2022/01/03 05:53:39;;;;;;;25.27;4.50;;;;;;;9.44;82.48;101105.59;5059390;28;20477;-59
2022/01/03 05:56:05;;;;;;;28.50;6.10;;;;;;;9.41;82.61;101116.50;5057095;28;20090;-59
2022/01/03 05:58:30;;;;;;;27.02;5.05;;;;;;;9.43;82.67;101093.34;5055129;28;20028;-59
2022/01/03 06:00:55;;;;;;;29.75;5.07;;;;;;;9.47;82.96;101115.88;5059149;28;20063;-58
2022/01/03 06:03:23;;;;;;;34.97;5.05;;;;;;;9.47;82.90;101123.00;5059838;28;20029;-59
2022/01/03 06:08:21;;;;;;;31.35;4.80;;;;;;;9.49;82.55;101097.16;5060835;28;20040;-59
2022/01/03 06:10:46;;;;;;;31.10;4.80;;;;;;;9.50;82.82;101094.34;5059215;28;20032;-59
2022/01/03 06:13:11;;;;;;;26.73;4.78;;;;;;;9.46;82.94;101087.72;5054892;28;20130;-59
2022/01/03 06:15:41;;;;;;;31.40;5.07;;;;;;;9.48;83.04;101101.63;5055164;28;20054;-59
2022/01/03 06:18:10;;;;;;;;;;;;;;;9.48;82.78;101087.56;5056941;28;20035;-59
2022/01/03 06:20:37;;;;;;;26.38;4.50;;;;;;;9.45;82.68;101101.97;5051748;28;19912;-59
2022/01/03 06:23:02;;;;;;;26.13;4.25;;;;;;;9.43;82.68;101085.38;5051471;28;20511;-59
2022/01/03 06:25:28;;;;;;;27.17;4.32;;;;;;;9.39;82.97;101083.22;5054696;28;20025;-59
2022/01/03 06:27:53;;;;;;;25.17;4.50;;;;;;;9.35;82.72;101093.28;5054388;28;20105;-59
2022/01/03 06:30:18;;;;;;;27.45;5.20;;;;;;;9.32;83.03;101096.25;5057382;28;20025;-59
2022/01/03 06:32:44;;;;;;;27.73;4.13;;;;;;;9.32;82.33;101085.66;5054713;28;20058;-59
2022/01/03 06:35:09;;;;;;;24.05;3.95;;;;;;;9.32;82.72;101078.53;5055792;28;20106;-59
2022/01/03 06:37:34;;;;;;;28.85;4.30;;;;;;;9.30;82.54;101071.72;5064133;28;20032;-60
2022/01/03 06:40:00;;;;;;;32.30;4.40;;;;;;;9.26;83.10;101086.28;5063768;28;20060;-58
2022/01/03 06:42:25;;;;;;;23.10;3.97;;;;;;;9.26;82.80;101081.00;5062466;28;20064;-58
2022/01/03 06:44:50;;;;;;;22.27;4.10;;;;;;;9.25;82.70;101077.50;5062980;28;20071;-59
2022/01/03 06:47:17;;;;;;;30.98;5.38;;;;;;;9.26;83.07;101078.34;5059361;28;20040;-59
2022/01/03 06:49:42;;;;;;;28.17;4.20;;;;;;;9.25;83.11;101066.03;5058944;28;20036;-59
2022/01/03 06:52:07;;;;;;;29.05;5.25;;;;;;;9.28;82.90;101068.41;5053254;28;20029;-59
2022/01/03 06:54:33;;;;;;;28.77;4.70;;;;;;;9.30;82.79;101067.25;5053983;28;20029;-59
2022/01/03 06:56:59;;;;;;;24.15;4.53;;;;;;;9.31;82.91;101063.63;5054213;28;20444;-59
2022/01/03 06:59:24;;;;;;;26.65;4.30;;;;;;;9.30;83.20;101072.56;5056905;28;20036;-58
2022/01/03 07:01:49;;;;;;;27.45;4.85;;;;;;;9.30;83.30;101082.34;5059657;28;20063;-59
2022/01/03 07:04:15;;;;;;;23.38;4.28;;;;;;;9.28;83.47;101084.31;5063846;28;20078;-59
2022/01/03 07:06:40;;;;;;;31.90;4.57;;;;;;;9.24;83.82;101073.16;5068667;28;20063;-58
2022/01/03 07:09:07;;;;;;;34.53;5.22;;;;;;;9.24;83.94;101072.34;5064257;28;20498;-58
2022/01/03 07:11:32;;;;;;;26.13;4.30;;;;;;;9.20;84.06;101069.16;5058438;28;20392;-59
2022/01/03 07:19:25;;;;;;;21.80;3.78;;;;;;;9.12;84.99;101063.00;5058270;28;20048;-59
2022/01/03 07:21:50;;;;;;;29.63;5.53;;;;;;;9.10;85.17;101064.97;5057999;28;20032;-59
2022/01/03 07:24:16;;;;;;;24.05;4.18;;;;;;;9.10;85.08;101070.25;5063812;28;20025;-59
2022/01/03 07:26:41;;;;;;;23.80;4.78;;;;;;;9.09;85.50;101063.31;5056630;28;20025;-58
2022/01/03 07:29:06;;;;;;;25.15;4.10;;;;;;;9.08;85.63;101067.78;5061941;28;20583;-58
2022/01/03 07:31:32;;;;;;;28.90;4.88;;;;;;;9.09;85.14;101074.75;5065730;28;20028;-58
2022/01/03 07:33:57;;;;;;;27.42;4.35;;;;;;;9.09;85.84;101064.13;5061353;28;20325;-58
2022/01/03 07:36:22;;;;;;;24.90;4.13;;;;;;;9.11;85.53;101064.81;5061576;28;20422;-57
2022/01/03 07:38:48;;;;;;;26.70;4.38;;;;;;;9.11;85.28;101070.13;5057920;28;20068;-57
2022/01/03 07:41:15;;;;;;;27.77;4.38;;;;;;;9.07;85.36;101066.13;5068004;28;20442;-58
2022/01/03 07:43:42;;;;;;;24.73;4.47;;;;;;;9.05;85.72;101076.03;5058686;28;20421;-57
2022/01/03 07:46:07;;;;;;;27.25;4.00;;;;;;;9.03;85.59;101078.00;5063134;28;20377;-58
2022/01/03 07:48:32;;;;;;;27.77;4.28;;;;;;;9.02;86.07;101084.28;5063908;28;20480;-58
2022/01/03 07:50:57;;;;;;;23.33;4.00;;;;;;;9.02;85.92;101078.16;5055184;28;20025;-58
2022/01/03 07:53:24;;;;;;;27.52;4.18;;;;;;;8.99;85.76;101077.50;5057613;28;20115;-59
2022/01/03 07:55:49;;;;;;;25.13;4.35;;;;;;;9.01;86.11;101090.59;5053838;28;20029;-58
2022/01/03 07:58:16;;;;;;;26.15;4.25;;;;;;;9.01;86.04;101085.28;5052037;28;20043;-58
2022/01/03 08:00:43;;;;;;;19.05;4.22;;;;;;;9.00;85.68;101094.22;5056523;28;20459;-57
2022/01/03 08:03:08;;;;;;;20.55;4.13;;;;;;;9.05;85.84;101093.75;5069165;28;20047;-57
2022/01/03 08:05:33;;;;;;;22.40;4.10;;;;;;;9.07;85.61;101086.47;5063573;28;20381;-59
2022/01/03 08:07:59;;;;;;;19.85;3.97;;;;;;;9.12;85.38;101078.88;5059277;28;20047;-59
2022/01/03 08:10:24;;;;;;;26.13;4.38;;;;;;;9.14;85.31;101079.56;5060778;28;20094;-58
2022/01/03 08:12:50;;;;;;;22.83;4.88;;;;;;;9.20;85.07;101081.59;5059653;28;20485;-59
2022/01/03 08:15:15;;;;;;;27.23;4.68;;;;;;;9.23;84.61;101089.22;5067970;28;20024;-59
2022/01/03 08:17:44;;;;;;;19.17;4.63;;;;;;;9.27;84.82;101093.25;5056815;28;20124;-59
2022/01/03 08:20:10;;;;;;;22.17;4.18;;;;;;;9.31;84.53;101079.53;5056644;28;20119;-59
2022/01/03 08:22:35;;;;;;;22.30;4.05;;;;;;;9.33;84.59;101076.72;5059520;28;20107;-59
2022/01/03 08:25:00;;;;;;;24.92;4.05;;;;;;;9.34;84.27;101078.38;5054424;28;20033;-59
2022/01/03 08:27:25;;;;;;;22.52;4.28;;;;;;;9.33;84.00;101087.31;5063607;28;20060;-59
2022/01/03 08:29:51;;;;;;;21.67;4.00;;;;;;;9.31;84.10;101082.19;5062501;28;20183;-59
2022/01/03 08:32:16;;;;;;;25.05;5.07;;;;;;;9.35;83.75;101069.44;5057159;28;20037;-59
2022/01/03 08:34:41;;;;;;;18.30;4.22;;;;;;;9.39;83.64;101077.91;5062126;28;20029;-59
2022/01/03 08:37:06;;;;;;;19.40;4.00;;;;;;;9.38;83.74;101074.44;5059139;28;20052;-59
2022/01/03 08:39:32;;;;;;;23.15;4.45;;;;;;;9.41;83.57;101082.06;5065033;28;20108;-59
2022/01/03 08:41:57;;;;;;;22.92;4.18;;;;;;;9.44;83.24;101067.66;5056869;28;20029;-59
2022/01/03 08:44:22;;;;;;;25.45;4.30;;;;;;;9.45;83.24;101086.06;5055800;28;20020;-60
2022/01/03 08:46:49;;;;;;;29.80;4.88;;;;;;;9.46;83.66;101077.13;5054931;28;20029;-59
2022/01/03 08:49:15;;;;;;;26.10;4.78;;;;;;;9.47;83.23;101088.53;5055366;28;20246;-59
2022/01/03 08:51:40;;;;;;;20.65;4.20;;;;;;;9.47;82.73;101086.72;5056444;28;20032;-59
2022/01/03 08:54:06;;;;;;;26.63;4.88;;;;;;;9.46;83.56;101100.13;5066804;28;20017;-59
2022/01/03 08:56:31;;;;;;;21.85;5.00;;;;;;;9.45;83.76;101107.25;5058833;28;20021;-59
2022/01/03 08:58:57;;;;;;;23.45;5.10;;;;;;;9.45;83.65;101107.25;5055272;28;20029;-59
2022/01/03 09:01:22;;;;;;;22.27;4.60;;;;;;;9.47;83.40;101115.06;5059013;28;20101;-59
2022/01/03 09:03:50;;;;;;;21.15;4.20;;;;;;;9.46;83.66;101116.03;5065522;28;20029;-59
2022/01/03 09:06:17;;;;;;;23.35;4.32;;;;;;;9.48;83.69;101117.56;5059937;28;20016;-60
2022/01/03 09:08:43;;;;;;;22.48;4.50;;;;;;;9.50;83.24;101107.63;5057025;28;20020;-59
2022/01/03 09:11:08;;;;;;;20.35;4.30;;;;;;;9.52;83.55;101102.16;5061802;28;20078;-60
2022/01/03 09:13:34;;;;;;;28.17;4.72;;;;;;;9.52;83.92;101096.84;5061463;28;20071;-59
2022/01/03 09:16:04;;;;;;;26.63;4.53;;;;;;;9.51;83.58;101095.19;5063071;28;20259;-59
2022/01/03 09:18:31;;;;;;;25.92;4.28;;;;;;;9.49;83.79;101086.56;5055254;28;20439;-59
2022/01/03 09:20:56;;;;;;;21.52;3.95;;;;;;;9.48;83.95;101083.09;5058790;28;20025;-59
2022/01/03 09:23:27;;;;;;;20.95;4.90;;;;;;;9.50;84.01;101080.28;5069894;28;20029;-60
2022/01/03 09:28:49;;;;;;;19.85;4.00;;;;;;;9.54;84.00;101074.53;5057920;28;20040;-60
2022/01/03 09:31:15;;;;;;;23.42;4.70;;;;;;;9.57;83.61;101084.81;5066546;28;20024;-59
2022/01/03 09:33:41;;;;;;;25.05;4.10;;;;;;;9.61;83.44;101074.72;5055797;28;20008;-59
2022/01/03 09:36:06;;;;;;;25.45;4.45;;;;;;;9.62;83.44;101074.56;5059534;28;20028;-59
2022/01/03 09:38:32;;;;;;;24.30;4.15;;;;;;;9.63;83.47;101065.59;5053135;28;20075;-59
2022/01/03 09:41:02;;;;;;;24.65;4.80;;;;;;;9.68;83.34;101065.13;5059541;28;20154;-60
2022/01/03 09:43:33;;;;;;;24.17;5.72;;;;;;;9.70;82.76;101049.88;5055105;28;20028;-59
2022/01/03 09:46:01;;;;;;;23.83;4.47;;;;;;;9.73;82.55;101060.16;5061117;28;20028;-59
2022/01/03 09:48:27;;;;;;;23.30;5.00;;;;;;;9.77;82.80;101058.84;5061693;28;20032;-59
2022/01/03 09:50:55;;;;;;;25.48;4.95;;;;;;;9.85;82.21;101068.69;5066378;28;20082;-59
2022/01/03 09:53:21;;;;;;;22.88;4.38;;;;;;;9.89;82.40;101065.56;5056426;28;20017;-60
2022/01/03 09:55:47;;;;;;;23.92;4.53;;;;;;;9.92;82.02;101081.16;5067241;28;20440;-59
2022/01/03 09:58:14;;;;;;;25.58;4.45;;;;;;;9.98;82.13;101060.25;5059210;28;20467;-60
2022/01/03 10:00:40;;;;;;;25.15;3.88;;;;;;;10.07;82.00;101059.28;5051887;28;20040;-59
2022/01/03 10:03:06;;;;;;;25.58;4.38;;;;;;;10.13;81.99;101075.41;5051612;28;20052;-59
2022/01/03 10:05:31;;;;;;;24.15;4.22;;;;;;;10.14;81.27;101062.97;5056647;28;20033;-59
2022/01/03 10:07:57;;;;;;;22.95;4.65;;;;;;;10.14;81.35;101049.72;5052088;28;20032;-59
2022/01/03 10:10:22;;;;;;;25.23;4.00;;;;;;;10.15;81.33;101056.69;5053858;28;20203;-59
2022/01/03 10:12:48;;;;;;;24.90;4.35;;;;;;;10.14;81.38;101062.97;5053909;28;20605;-59
2022/01/03 10:15:13;;;;;;;25.48;4.72;;;;;;;10.13;81.69;101070.09;5057313;28;20055;-59
2022/01/03 10:17:42;;;;;;;25.75;4.00;;;;;;;10.13;81.41;101054.19;5057486;28;20021;-60
2022/01/03 10:20:10;;;;;;;30.17;5.05;;;;;;;10.16;81.61;101059.16;5057852;28;20032;-60
2022/01/03 10:22:38;;;;;;;23.65;4.05;;;;;;;10.17;81.36;101054.69;5055782;28;20052;-59
2022/01/03 10:25:18;;;;;;;24.27;4.25;;;;;;;10.17;81.33;101054.69;5056910;28;20430;-59
2022/01/03 10:27:45;;;;;;;;;;;;;;;10.18;81.27;101051.03;5056092;28;20123;-59
2022/01/03 10:30:10;;;;;;;25.92;4.03;;;;;;;10.16;80.74;101056.50;5051699;28;19916;-59
2022/01/03 10:32:36;;;;;;;24.23;4.50;;;;;;;10.17;80.97;101055.53;5061865;28;20025;-59
2022/01/03 10:35:17;;;;;;;25.20;4.00;;;;;;;10.18;81.01;101041.25;5052520;28;20035;-59
2022/01/03 10:37:43;;;;;;;25.23;4.13;;;;;;;10.18;80.87;101037.78;5060667;28;20512;-60
2022/01/03 10:40:16;;;;;;;22.30;4.10;;;;;;;10.16;80.73;101037.09;5052793;28;20495;-59
2022/01/03 10:42:42;;;;;;;28.27;4.95;;;;;;;10.17;81.25;101033.47;5063714;28;20051;-60
2022/01/03 10:45:08;;;;;;;28.88;4.38;;;;;;;10.14;80.88;101026.66;5056926;28;20036;-60
2022/01/03 10:47:34;;;;;;;23.40;4.80;;;;;;;10.14;80.82;101039.94;5059053;28;20028;-60
2022/01/03 10:50:11;;;;;;;24.65;3.85;;;;;;;10.12;80.99;101026.00;5055225;28;20033;-60
2022/01/03 10:52:39;;;;;;;32.53;4.53;;;;;;;10.08;81.61;101021.97;5054479;28;20013;-59
2022/01/03 10:55:13;;;;;;;29.17;4.30;;;;;;;10.05;81.58;101024.97;5054819;28;20025;-59
2022/01/03 10:57:55;;;;;;;27.20;4.38;;;;;;;10.07;81.62;101028.28;5054170;28;20678;-60
2022/01/03 11:00:25;;;;;;;18.88;3.83;;;;;;;10.10;81.46;101021.81;5056034;28;20070;-59
2022/01/03 11:05:56;;;;;;;27.52;4.13;;;;;;;10.08;81.26;101015.84;5054769;28;20397;-59
2022/01/03 11:11:11;;;;;;;;;;;;;;;10.04;81.42;100996.75;5052804;28;20047;-60
2022/01/03 11:13:38;;;;;;;27.75;4.70;;;;;;;10.03;81.36;101000.41;5060665;28;19909;-59
2022/01/03 11:16:06;;;;;;;19.63;3.78;;;;;;;10.03;81.25;100994.28;5061282;28;20028;-60
2022/01/03 11:18:46;;;;;;;22.15;4.03;;;;;;;10.05;81.43;101000.25;5051092;28;20125;-59
2022/01/03 11:21:16;;;;;;;25.60;4.57;;;;;;;10.04;81.45;101002.06;5060069;28;20555;-59
2022/01/03 11:24:01;;;;;;;22.33;3.78;;;;;;;10.04;81.63;101012.69;5058850;28;20028;-59
2022/01/03 11:26:30;;;;;;;23.98;4.40;;;;;;;10.05;81.47;101002.91;5058962;28;20017;-59
2022/01/03 11:28:56;;;;;;;26.55;4.75;;;;;;;10.05;81.36;100995.78;5054903;28;20054;-59
2022/01/03 11:31:21;;;;;;;23.70;4.60;;;;;;;10.07;81.47;100991.13;5053162;28;20036;-59
2022/01/03 11:33:49;;;;;;;17.67;3.70;;;;;;;10.06;81.17;100989.47;5054105;28;20036;-59
2022/01/03 11:36:20;;;;;;;20.95;4.28;;;;;;;10.08;81.15;100990.13;5053663;28;20087;-59
2022/01/03 11:38:46;;;;;;;21.60;4.05;;;;;;;10.12;80.88;100982.69;5058523;28;20163;-60
2022/01/03 11:41:12;;;;;;;22.45;4.10;;;;;;;10.14;81.27;100980.72;5057346;28;20024;-58